createdAt,value
2023-02-27T00:01:01.800Z,0.40
2023-02-27T00:03:29.288Z,0.20
2023-02-27T00:05:57.305Z,0.20
2023-02-27T00:08:25.184Z,0.10
2023-02-27T00:10:52.982Z,0.00
2023-02-27T00:13:21.154Z,0.10
2023-02-27T00:15:51.999Z,0.10
2023-02-27T00:18:19.983Z,0.10
2023-02-27T00:20:48.656Z,0.10
2023-02-27T00:23:16.071Z,0.40
2023-02-27T00:25:43.665Z,0.40
2023-02-27T00:28:11.339Z,0.40
2023-02-27T00:30:38.774Z,0.50
2023-02-27T00:33:06.235Z,0.20
2023-02-27T00:35:33.698Z,0.40
2023-02-27T00:38:02.249Z,0.10
2023-02-27T00:40:29.782Z,1.40
2023-02-27T00:42:57.853Z,0.10
2023-02-27T00:45:25.432Z,-0.10
2023-02-27T00:47:53.957Z,-0.10
2023-02-27T00:50:21.562Z,0.10
2023-02-27T00:52:49.261Z,-0.10
2023-02-27T00:55:16.972Z,0.10
2023-02-27T00:57:44.472Z,0.10
2023-02-27T01:00:12.907Z,0.00
2023-02-27T01:02:40.448Z,0.40
2023-02-27T01:05:09.082Z,0.10
2023-02-27T01:07:37.739Z,0.10
2023-02-27T01:10:07.788Z,0.00
2023-02-27T01:12:39.689Z,0.30
2023-02-27T01:15:09.990Z,0.10
2023-02-27T01:17:37.859Z,0.10
2023-02-27T01:20:07.741Z,0.10
2023-02-27T01:22:35.846Z,0.20
2023-02-27T01:25:04.436Z,0.30
2023-02-27T01:27:31.990Z,-0.10
2023-02-27T01:29:59.980Z,0.30
2023-02-27T01:32:27.525Z,0.20
2023-02-27T01:34:55.549Z,0.30
2023-02-27T01:37:23.007Z,0.10
2023-02-27T01:39:50.457Z,0.20
2023-02-27T01:42:28.416Z,0.20
2023-02-27T01:45:12.100Z,-0.10
2023-02-27T01:47:51.151Z,-0.20
2023-02-27T01:50:19.645Z,0.00
2023-02-27T01:52:56.135Z,0.00
2023-02-27T01:55:28.134Z,0.10
2023-02-27T01:57:56.866Z,0.10
2023-02-27T02:00:25.445Z,0.20
2023-02-27T02:03:36.188Z,0.30
2023-02-27T02:06:07.332Z,-0.30
2023-02-27T02:08:42.174Z,2.00
2023-02-27T02:11:10.891Z,0.00
2023-02-27T02:13:41.335Z,0.20
2023-02-27T02:16:54.859Z,-0.20
2023-02-27T02:20:21.384Z,-0.20
2023-02-27T02:23:32.533Z,-0.10
2023-02-27T02:26:09.012Z,0.00
2023-02-27T02:29:13.620Z,-0.20
2023-02-27T02:32:13.116Z,-0.30
2023-02-27T02:35:27.973Z,0.10
2023-02-27T02:38:19.454Z,0.10
2023-02-27T02:41:18.751Z,0.10
2023-02-27T02:44:15.556Z,-0.40
2023-02-27T02:46:57.007Z,-0.10
2023-02-27T02:49:52.241Z,-0.10
2023-02-27T02:53:00.098Z,-0.30
2023-02-27T02:55:38.500Z,0.00
2023-02-27T02:58:47.827Z,-0.10
2023-02-27T03:01:34.966Z,0.10
2023-02-27T03:04:33.377Z,-0.20
2023-02-27T03:07:29.441Z,0.00
2023-02-27T03:10:59.037Z,0.00
2023-02-27T03:13:47.115Z,-0.30
2023-02-27T03:16:44.233Z,0.00
2023-02-27T03:19:18.996Z,-0.30
2023-02-27T03:21:54.657Z,-3.20
2023-02-27T03:24:39.299Z,-0.10
2023-02-27T03:27:09.735Z,-0.10
2023-02-27T03:30:01.677Z,-0.10
2023-02-27T03:32:45.986Z,0.00
2023-02-27T03:35:14.413Z,-0.40
2023-02-27T03:38:12.723Z,-0.10
2023-02-27T03:41:14.105Z,0.10
2023-02-27T03:43:53.929Z,-0.10
2023-02-27T03:46:27.902Z,-0.40
2023-02-27T03:48:55.506Z,0.00
2023-02-27T03:51:28.131Z,-0.50
2023-02-27T03:54:15.959Z,0.00
2023-02-27T03:56:56.734Z,-0.30
2023-02-27T03:59:28.546Z,-0.30
2023-02-27T04:01:59.442Z,-0.40
2023-02-27T04:04:29.407Z,-0.20
2023-02-27T04:07:23.928Z,-0.10
2023-02-27T04:10:17.155Z,-0.10
2023-02-27T04:13:12.377Z,-0.40
2023-02-27T04:15:55.327Z,-0.50
2023-02-27T04:18:40.945Z,-0.60
2023-02-27T04:21:35.126Z,-0.50
2023-02-27T04:24:27.130Z,-0.60
2023-02-27T04:27:40.239Z,-0.50
2023-02-27T04:30:34.455Z,-0.10
2023-02-27T04:33:43.025Z,-0.20
2023-02-27T04:36:20.702Z,-0.40
2023-02-27T04:39:18.269Z,-0.30
2023-02-27T04:42:03.562Z,-0.20
2023-02-27T04:44:38.723Z,-0.40
2023-02-27T04:47:10.960Z,-0.10
2023-02-27T04:49:49.321Z,-0.10
2023-02-27T04:52:24.442Z,-0.40
2023-02-27T04:54:59.382Z,-0.20
2023-02-27T04:57:49.353Z,-0.10
2023-02-27T05:00:22.266Z,-0.10
2023-02-27T05:03:00.191Z,-0.20
2023-02-27T05:05:34.125Z,-0.40
2023-02-27T05:08:39.608Z,-0.20
2023-02-27T05:11:23.478Z,-0.20
2023-02-27T05:14:00.383Z,-0.40
2023-02-27T05:16:41.859Z,-0.50
2023-02-27T05:19:11.045Z,-0.30
2023-02-27T05:22:10.145Z,-0.70
2023-02-27T05:24:54.242Z,-0.20
2023-02-27T05:27:34.454Z,-0.30
2023-02-27T05:30:32.182Z,-0.10
2023-02-27T05:34:04.576Z,-0.50
2023-02-27T05:37:00.019Z,-0.30
2023-02-27T05:39:40.192Z,-0.10
2023-02-27T05:42:38.788Z,-0.70
2023-02-27T05:45:18.807Z,-0.40
2023-02-27T05:48:31.940Z,-0.30
2023-02-27T05:51:06.648Z,-0.10
2023-02-27T05:53:46.258Z,0.60
2023-02-27T05:56:19.396Z,-0.20
2023-02-27T05:59:02.325Z,-0.30
2023-02-27T06:01:52.642Z,-0.10
2023-02-27T06:04:21.862Z,0.00
2023-02-27T06:06:56.119Z,-0.20
2023-02-27T06:09:28.125Z,0.00
2023-02-27T06:11:55.632Z,0.10
2023-02-27T06:17:35.746Z,0.20
2023-02-27T06:21:17.652Z,0.50
2023-02-27T06:23:46.519Z,0.70
2023-02-27T06:26:14.482Z,0.70
2023-02-27T06:28:42.805Z,0.60
2023-02-27T06:31:13.399Z,0.90
2023-02-27T06:33:41.025Z,0.60
2023-02-27T06:36:09.205Z,0.80
2023-02-27T06:38:37.778Z,1.00
2023-02-27T06:41:10.279Z,0.80
2023-02-27T06:43:37.750Z,1.20
2023-02-27T06:46:05.681Z,1.20
2023-02-27T06:48:33.645Z,1.20
2023-02-27T06:51:00.938Z,0.90
2023-02-27T06:53:30.542Z,1.00
2023-02-27T06:55:57.906Z,0.90
2023-02-27T06:58:25.362Z,1.00
2023-02-27T07:00:53.098Z,1.00
2023-02-27T07:03:29.752Z,1.30
2023-02-27T07:05:59.295Z,1.10
2023-02-27T07:08:26.930Z,1.20
2023-02-27T07:10:54.309Z,1.70
2023-02-27T07:13:21.871Z,1.60
2023-02-27T07:15:50.778Z,2.30
2023-02-27T07:18:20.268Z,2.20
2023-02-27T07:21:01.050Z,2.10
2023-02-27T07:23:28.424Z,2.30
2023-02-27T07:25:58.003Z,2.30
2023-02-27T07:28:25.389Z,2.10
2023-02-27T07:30:57.771Z,2.50
2023-02-27T07:33:25.723Z,2.50
2023-02-27T07:35:53.679Z,2.40
2023-02-27T07:38:29.111Z,2.30
2023-02-27T07:41:00.643Z,2.20
2023-02-27T07:43:28.188Z,2.80
2023-02-27T07:45:55.594Z,2.50
2023-02-27T07:48:23.105Z,2.30
2023-02-27T07:50:50.690Z,2.70
2023-02-27T07:53:18.118Z,2.70
2023-02-27T07:55:46.828Z,2.70
2023-02-27T07:58:16.924Z,2.80
2023-02-27T08:00:44.989Z,2.80
2023-02-27T08:03:12.814Z,2.60
2023-02-27T08:05:40.365Z,2.60
2023-02-27T08:08:07.935Z,2.80
2023-02-27T08:10:35.546Z,2.80
2023-02-27T08:13:03.900Z,3.60
2023-02-27T08:15:32.936Z,3.20
2023-02-27T08:18:00.726Z,3.50
2023-02-27T08:20:28.398Z,3.70
2023-02-27T08:22:58.291Z,4.10
2023-02-27T08:25:26.042Z,4.30
2023-02-27T08:27:55.838Z,5.10
2023-02-27T08:30:31.654Z,5.00
2023-02-27T08:33:02.975Z,5.00
2023-02-27T08:35:32.844Z,5.40
2023-02-27T08:38:00.632Z,5.60
2023-02-27T08:40:28.047Z,5.20
2023-02-27T08:42:55.473Z,5.40
2023-02-27T08:45:23.213Z,5.80
2023-02-27T08:47:52.222Z,5.90
2023-02-27T08:50:22.473Z,6.40
2023-02-27T08:52:54.702Z,6.10
2023-02-27T08:55:22.155Z,6.00
2023-02-27T08:57:49.669Z,5.70
2023-02-27T09:00:20.813Z,5.70
2023-02-27T09:02:48.547Z,6.00
2023-02-27T09:05:16.141Z,6.00
2023-02-27T09:07:43.658Z,5.80
2023-02-27T09:10:12.438Z,5.70
2023-02-27T09:12:39.996Z,6.20
2023-02-27T09:15:08.638Z,6.00
2023-02-27T09:17:36.114Z,6.20
2023-02-27T09:20:05.393Z,5.90
2023-02-27T09:22:33.041Z,6.40
2023-02-27T09:25:00.572Z,6.30
2023-02-27T09:27:30.477Z,5.90
2023-02-27T09:29:58.187Z,6.30
2023-02-27T09:32:29.386Z,6.20
2023-02-27T09:34:57.001Z,6.10
2023-02-27T09:37:25.168Z,6.20
2023-02-27T09:39:52.595Z,6.00
2023-02-27T09:42:26.335Z,5.80
2023-02-27T09:45:07.680Z,6.10
2023-02-27T09:47:51.015Z,6.30
2023-02-27T09:50:47.517Z,5.40
2023-02-27T09:53:29.300Z,5.70
2023-02-27T09:56:07.492Z,5.90
2023-02-27T09:59:21.524Z,6.10
2023-02-27T10:01:59.735Z,6.00
2023-02-27T10:04:52.202Z,6.10
2023-02-27T10:08:07.415Z,6.00
2023-02-27T10:10:49.654Z,6.10
2023-02-27T10:13:56.175Z,5.50
2023-02-27T10:16:26.767Z,5.90
2023-02-27T10:19:02.186Z,6.00
2023-02-27T10:21:47.851Z,5.90
2023-02-27T10:24:27.811Z,5.40
2023-02-27T10:26:59.367Z,5.40
2023-02-27T10:29:42.586Z,5.30
2023-02-27T10:32:28.351Z,5.30
2023-02-27T10:35:10.302Z,5.70
2023-02-27T10:37:48.490Z,5.60
2023-02-27T10:40:17.881Z,5.50
2023-02-27T10:42:49.747Z,5.90
2023-02-27T10:45:17.416Z,5.80
2023-02-27T10:47:45.374Z,5.70
2023-02-27T10:50:37.055Z,5.80
2023-02-27T10:53:27.807Z,5.60
2023-02-27T10:56:04.715Z,5.90
2023-02-27T10:58:37.161Z,5.90
2023-02-27T11:01:17.495Z,6.20
2023-02-27T11:03:45.118Z,6.00
2023-02-27T11:06:26.682Z,6.30
2023-02-27T11:09:28.285Z,6.00
2023-02-27T11:12:09.959Z,6.20
2023-02-27T11:14:55.979Z,6.20
2023-02-27T11:17:34.336Z,6.30
2023-02-27T11:20:08.337Z,6.20
2023-02-27T11:22:36.265Z,6.20
2023-02-27T11:25:24.992Z,6.30
2023-02-27T11:28:11.904Z,6.10
2023-02-27T11:30:39.635Z,6.30
2023-02-27T11:33:20.351Z,6.50
2023-02-27T11:35:57.117Z,6.50
2023-02-27T11:38:35.067Z,6.70
2023-02-27T11:41:08.713Z,6.80
2023-02-27T11:43:48.538Z,6.50
2023-02-27T11:46:45.747Z,6.50
2023-02-27T11:49:39.977Z,6.10
2023-02-27T11:52:50.879Z,6.00
2023-02-27T11:55:25.185Z,6.00
2023-02-27T11:58:10.901Z,6.20
2023-02-27T12:01:00.221Z,6.50
2023-02-27T12:04:02.769Z,6.70
2023-02-27T12:06:44.789Z,6.90
2023-02-27T12:09:27.343Z,6.90
2023-02-27T12:11:56.717Z,6.70
2023-02-27T12:14:45.611Z,6.70
2023-02-27T12:17:45.192Z,6.80
2023-02-27T12:20:31.205Z,6.80
2023-02-27T12:23:00.881Z,6.70
2023-02-27T12:25:46.664Z,6.60
2023-02-27T12:28:29.683Z,6.40
2023-02-27T12:31:17.101Z,6.30
2023-02-27T12:34:11.144Z,6.30
2023-02-27T12:36:38.885Z,6.20
2023-02-27T12:39:18.094Z,6.60
2023-02-27T12:42:38.983Z,6.30
2023-02-27T12:45:54.122Z,6.10
2023-02-27T12:48:47.704Z,6.50
2023-02-27T12:51:49.804Z,6.40
2023-02-27T12:54:30.551Z,6.40
2023-02-27T12:57:45.759Z,6.60
2023-02-27T13:00:15.941Z,6.50
2023-02-27T13:03:07.909Z,6.30
2023-02-27T13:05:52.537Z,6.50
2023-02-27T13:08:44.562Z,6.50
2023-02-27T13:11:34.037Z,6.10
2023-02-27T13:14:33.159Z,6.00
2023-02-27T13:17:32.461Z,5.90
2023-02-27T13:20:37.910Z,6.10
2023-02-27T13:23:26.994Z,6.10
2023-02-27T13:25:57.874Z,6.00
2023-02-27T13:28:29.578Z,6.10
2023-02-27T13:31:41.918Z,6.10
2023-02-27T13:34:34.884Z,6.20
2023-02-27T13:37:06.461Z,6.40
2023-02-27T13:40:30.502Z,6.00
2023-02-27T13:43:06.761Z,5.80
2023-02-27T13:45:57.054Z,5.70
2023-02-27T13:48:46.083Z,5.60
2023-02-27T13:51:56.585Z,5.40
2023-02-27T13:54:31.626Z,5.50
2023-02-27T13:57:23.497Z,5.20
2023-02-27T14:00:09.272Z,5.10
2023-02-27T14:03:00.349Z,5.40
2023-02-27T14:05:43.001Z,5.60
2023-02-27T14:08:26.948Z,5.40
2023-02-27T14:11:19.173Z,5.50
2023-02-27T14:13:57.225Z,5.20
2023-02-27T14:19:49.797Z,5.10
2023-02-27T14:22:17.248Z,5.00
2023-02-27T14:25:02.824Z,4.70
2023-02-27T14:27:49.530Z,4.80
2023-02-27T14:30:41.075Z,4.70
2023-02-27T14:33:37.465Z,4.60
2023-02-27T14:36:41.866Z,4.60
2023-02-27T14:39:34.941Z,4.70
2023-02-27T14:42:37.805Z,4.40
2023-02-27T14:45:24.311Z,4.30
2023-02-27T14:47:55.389Z,4.20
2023-02-27T14:54:21.732Z,4.30
2023-02-27T14:57:04.601Z,4.10
2023-02-27T14:59:45.934Z,4.40
2023-02-27T15:02:33.356Z,3.80
2023-02-27T15:05:12.523Z,4.00
2023-02-27T15:07:40.921Z,4.00
2023-02-27T15:10:20.634Z,3.90
2023-02-27T15:12:52.464Z,3.80
2023-02-27T15:15:22.132Z,3.80
2023-02-27T15:17:55.200Z,3.90
2023-02-27T15:20:36.934Z,4.00
2023-02-27T15:23:28.244Z,3.50
2023-02-27T15:25:59.237Z,3.50
2023-02-27T15:28:38.897Z,3.60
2023-02-27T15:31:31.241Z,3.40
2023-02-27T15:34:04.012Z,3.70
2023-02-27T15:36:36.704Z,3.70
2023-02-27T15:39:18.791Z,3.30
2023-02-27T15:41:53.612Z,3.20
2023-02-27T15:44:29.161Z,3.20
2023-02-27T15:47:30.050Z,3.20
2023-02-27T15:50:51.424Z,3.20
2023-02-27T15:53:29.073Z,3.20
2023-02-27T15:56:01.051Z,3.80
2023-02-27T15:58:39.005Z,3.20
2023-02-27T16:01:25.087Z,3.20
2023-02-27T16:04:00.135Z,3.20
2023-02-27T16:06:31.697Z,2.90
2023-02-27T16:09:25.898Z,2.80
2023-02-27T16:12:30.364Z,2.80
2023-02-27T16:15:40.313Z,2.70
2023-02-27T16:18:10.538Z,2.70
2023-02-27T16:20:58.882Z,2.60
2023-02-27T16:23:32.207Z,2.90
2023-02-27T16:26:43.504Z,2.60
2023-02-27T16:29:34.002Z,2.80
2023-02-27T16:32:03.553Z,2.60
2023-02-27T16:34:45.118Z,2.60
2023-02-27T16:37:30.619Z,2.40
2023-02-27T16:39:57.801Z,2.40
2023-02-27T16:42:27.758Z,2.20
2023-02-27T16:44:55.141Z,2.30
2023-02-27T16:47:23.034Z,2.00
2023-02-27T16:49:50.589Z,2.40
2023-02-27T16:52:17.786Z,2.30
2023-02-27T16:54:45.173Z,2.40
2023-02-27T16:57:14.010Z,2.40
2023-02-27T16:59:41.242Z,2.10
2023-02-27T17:02:14.704Z,2.10
2023-02-27T17:04:48.049Z,2.10
2023-02-27T17:07:18.100Z,1.80
2023-02-27T17:09:48.333Z,2.00
2023-02-27T17:12:15.489Z,2.00
2023-02-27T17:14:43.018Z,2.00
2023-02-27T17:17:11.581Z,1.80
2023-02-27T17:19:39.627Z,2.00
2023-02-27T17:22:07.342Z,2.00
2023-02-27T17:24:34.672Z,1.90
2023-02-27T17:27:02.135Z,2.70
2023-02-27T17:29:43.132Z,1.60
2023-02-27T17:32:18.795Z,1.70
2023-02-27T17:34:59.952Z,1.70
2023-02-27T17:37:36.639Z,1.70
2023-02-27T17:40:08.300Z,1.80
2023-02-27T17:42:40.029Z,1.60
2023-02-27T17:45:17.240Z,1.80
2023-02-27T17:47:48.254Z,1.70
2023-02-27T17:50:26.916Z,1.50
2023-02-27T17:52:57.408Z,1.70
2023-02-27T17:55:27.053Z,1.30
2023-02-27T17:57:54.483Z,1.70
2023-02-27T18:00:30.593Z,1.70
2023-02-27T18:03:00.585Z,1.40
2023-02-27T18:05:46.033Z,1.50
2023-02-27T18:08:19.556Z,1.30
2023-02-27T18:10:48.397Z,1.40
2023-02-27T18:13:22.210Z,1.40
2023-02-27T18:15:52.125Z,1.40
2023-02-27T18:18:25.001Z,1.40
2023-02-27T18:21:23.767Z,1.40
2023-02-27T18:23:57.758Z,1.30
2023-02-27T18:26:40.131Z,1.40
2023-02-27T18:29:17.450Z,1.30
2023-02-27T18:31:50.415Z,1.20
2023-02-27T18:34:19.922Z,1.30
2023-02-27T18:36:53.797Z,1.10
2023-02-27T18:39:30.132Z,1.00
2023-02-27T18:42:02.609Z,1.10
2023-02-27T18:44:40.950Z,1.30
2023-02-27T18:47:09.803Z,1.20
2023-02-27T18:49:55.743Z,1.30
2023-02-27T18:52:23.644Z,1.10
2023-02-27T18:54:51.269Z,1.10
2023-02-27T18:57:19.254Z,1.00
2023-02-27T18:59:52.050Z,1.10
2023-02-27T19:02:22.167Z,1.10
2023-02-27T19:04:49.749Z,1.00
2023-02-27T19:07:18.104Z,0.80
2023-02-27T19:09:45.697Z,0.90
2023-02-27T19:12:12.961Z,1.00
2023-02-27T19:14:45.552Z,0.90
2023-02-27T19:17:15.239Z,0.50
2023-02-27T19:19:42.807Z,0.70
2023-02-27T19:22:10.072Z,0.60
2023-02-27T19:24:37.720Z,0.60
2023-02-27T19:27:05.046Z,0.60
2023-02-27T19:29:33.693Z,0.50
2023-02-27T19:32:02.488Z,0.20
2023-02-27T19:34:30.489Z,0.50
2023-02-27T19:37:00.268Z,0.50
2023-02-27T19:39:41.745Z,0.50
2023-02-27T19:42:32.121Z,0.60
2023-02-27T19:44:59.412Z,0.60
2023-02-27T19:47:29.282Z,0.40
2023-02-27T19:49:57.987Z,0.30
2023-02-27T19:52:25.718Z,1.10
2023-02-27T19:54:57.676Z,0.40
2023-02-27T19:57:29.268Z,0.40
2023-02-27T19:59:56.825Z,0.30
2023-02-27T20:02:24.503Z,0.30
2023-02-27T20:04:52.322Z,0.40
2023-02-27T20:07:22.134Z,0.50
2023-02-27T20:09:49.973Z,0.50
2023-02-27T20:12:23.606Z,0.20
2023-02-27T20:14:52.057Z,0.20
2023-02-27T20:17:19.573Z,0.30
2023-02-27T20:19:47.168Z,0.10
2023-02-27T20:22:18.509Z,-0.10
2023-02-27T20:24:56.223Z,0.90
2023-02-27T20:27:23.649Z,0.20
2023-02-27T20:29:56.063Z,0.20
2023-02-27T20:32:25.202Z,0.20
2023-02-27T20:34:55.670Z,-0.10
2023-02-27T20:37:23.606Z,-0.10
2023-02-27T20:39:51.073Z,0.00
2023-02-27T20:42:26.015Z,-0.20
2023-02-27T20:44:53.769Z,-0.20
2023-02-27T20:47:24.078Z,-0.20
2023-02-27T20:49:51.314Z,-0.30
2023-02-27T20:52:18.701Z,-0.30
2023-02-27T20:54:46.305Z,-0.30
2023-02-27T20:57:13.965Z,-0.30
2023-02-27T20:59:41.419Z,-0.30
2023-02-27T21:02:11.103Z,-0.50
2023-02-27T21:04:47.431Z,-0.60
2023-02-27T21:07:19.132Z,-0.50
2023-02-27T21:09:46.506Z,-0.50
2023-02-27T21:12:14.452Z,-0.60
2023-02-27T21:14:45.596Z,-0.60
2023-02-27T21:17:14.063Z,-0.30
2023-02-27T21:19:42.019Z,-0.60
2023-02-27T21:22:12.257Z,-0.40
2023-02-27T21:24:41.537Z,-0.60
2023-02-27T21:27:19.938Z,-0.60
2023-02-27T21:29:49.173Z,-0.70
2023-02-27T21:32:16.821Z,-0.60
2023-02-27T21:34:44.719Z,-0.40
2023-02-27T21:37:12.758Z,-0.60
2023-02-27T21:39:40.481Z,-0.30
2023-02-27T21:42:09.335Z,-0.30
2023-02-27T21:44:36.563Z,-0.70
2023-02-27T21:47:15.950Z,-0.70
2023-02-27T21:49:47.865Z,-0.70
2023-02-27T21:52:15.944Z,-0.70
2023-02-27T21:54:44.813Z,-0.60
2023-02-27T21:57:13.275Z,-0.70
2023-02-27T21:59:42.501Z,-0.70
2023-02-27T22:02:14.820Z,-0.70
2023-02-27T22:04:42.263Z,-0.70
2023-02-27T22:07:11.420Z,-0.80
2023-02-27T22:09:38.856Z,-0.80
2023-02-27T22:12:06.712Z,-0.80
2023-02-27T22:14:33.929Z,-0.60
2023-02-27T22:17:01.137Z,-0.20
2023-02-27T22:19:28.624Z,-0.70
2023-02-27T22:21:55.774Z,-0.70
2023-02-27T22:24:23.020Z,-0.30
2023-02-27T22:26:50.756Z,-0.80
2023-02-27T22:29:18.101Z,-1.10
2023-02-27T22:31:45.641Z,-0.70
2023-02-27T22:34:19.868Z,-0.70
2023-02-27T22:36:48.860Z,-1.00
2023-02-27T22:39:16.134Z,-0.80
2023-02-27T22:41:46.256Z,-0.80
2023-02-27T22:44:15.972Z,-1.10
2023-02-27T22:46:47.706Z,-1.00
2023-02-27T22:49:22.380Z,-1.00
2023-02-27T22:51:52.310Z,0.40
2023-02-27T22:54:22.368Z,-1.00
2023-02-27T22:56:52.683Z,-0.90
2023-02-27T22:59:20.718Z,-1.00
2023-02-27T23:01:50.175Z,-0.90
2023-02-27T23:04:24.665Z,-0.90
2023-02-27T23:06:54.742Z,-1.00
2023-02-27T23:09:26.205Z,-0.90
2023-02-27T23:11:54.910Z,-0.30
2023-02-27T23:14:23.108Z,-1.10
2023-02-27T23:16:51.507Z,-0.90
2023-02-27T23:19:21.203Z,-1.20
2023-02-27T23:21:48.521Z,-1.20
2023-02-27T23:24:20.232Z,-1.10
2023-02-27T23:26:54.370Z,-1.10
2023-02-27T23:29:22.035Z,-1.30
2023-02-27T23:31:49.436Z,-1.20
2023-02-27T23:34:16.706Z,-1.30
2023-02-27T23:36:43.983Z,-1.10
2023-02-27T23:39:12.526Z,-1.30
2023-02-27T23:41:39.751Z,-1.30
2023-02-27T23:44:07.154Z,-1.10
2023-02-27T23:46:35.500Z,-1.30
2023-02-27T23:49:02.956Z,-1.10
2023-02-27T23:51:31.547Z,-1.20
2023-02-27T23:53:59.952Z,-1.30
2023-02-27T23:56:30.673Z,-1.30
2023-02-27T23:59:04.537Z,-1.30
